Time;durP1;ratioP1;P1;durP2;ratioP2;P2;SDS_P1;SDS_P2;PMS_P1;PMS_P2;Temp;Humidity;BMP_temperature;BMP_pressure;BME280_temperature;BME280_humidity;BME280_pressure;Samples;Min_cycle;Max_cycle;Signal;HPM_P1;HPM_P2
2023/10/27 00:00:36;;;;;;;;;;;9.60;99.90;;;;;;5094482;28;19924;-31
2023/10/27 00:03:03;;;;;;;;;;;9.60;99.90;;;;;;5092288;28;19974;-31
2023/10/27 00:05:29;;;;;;;;;;;9.60;99.90;;;;;;5094882;28;19924;-32
2023/10/27 00:07:57;;;;;;;;;;;9.60;99.90;;;;;;5094839;28;19928;-31
2023/10/27 00:10:24;;;;;;;;;;;9.60;99.90;;;;;;5095131;28;19923;-32
2023/10/27 00:12:51;;;;;;;;;;;9.50;99.90;;;;;;5096317;28;19974;-32
2023/10/27 00:15:18;;;;;;;;;;;9.50;99.90;;;;;;5094855;28;20009;-31
2023/10/27 00:17:45;;;;;;;;;;;9.60;99.90;;;;;;5113184;28;20315;-32
2023/10/27 00:20:12;;;;;;;;;;;9.50;99.90;;;;;;5094928;28;20286;-32
2023/10/27 00:22:39;;;;;;;;;;;9.50;99.90;;;;;;5094540;28;20671;-32
2023/10/27 00:25:07;;;;;;;;;;;9.50;99.90;;;;;;5095327;28;19978;-32
2023/10/27 00:27:34;;;;;;;;;;;9.50;99.90;;;;;;5112971;28;19928;-32
2023/10/27 00:30:01;;;;;;;;;;;9.50;99.90;;;;;;5112783;28;19928;-31
2023/10/27 00:32:27;;;;;;;;;;;9.50;99.90;;;;;;5112585;28;19924;-32
2023/10/27 00:34:54;;;;;;;;;;;9.50;99.90;;;;;;5112864;28;19992;-33
2023/10/27 00:37:20;;;;;;;;;;;9.50;99.90;;;;;;5113799;28;19927;-32
2023/10/27 00:39:47;;;;;;;;;;;9.50;99.90;;;;;;5112609;28;19971;-32
2023/10/27 00:42:15;;;;;;;;;;;9.50;99.90;;;;;;5095026;28;19924;-32
2023/10/27 00:44:42;;;;;;;;;;;9.50;99.90;;;;;;5112776;28;20344;-32
2023/10/27 00:47:08;;;;;;;;;;;9.50;99.90;;;;;;5112379;28;20298;-32
2023/10/27 00:49:35;;;;;;;;;;;9.50;99.90;;;;;;5113732;28;19924;-33
2023/10/27 00:52:04;;;;;;;;;;;9.50;99.90;;;;;;5093984;28;20129;-33
2023/10/27 00:54:30;;;;;;;;;;;9.50;99.90;;;;;;5108573;28;19972;-32
2023/10/27 00:56:57;;;;;;;;;;;9.50;99.90;;;;;;5094415;28;19924;-33
2023/10/27 00:59:25;;;;;;;;;;;9.50;99.90;;;;;;5094086;28;19924;-32
2023/10/27 01:01:51;;;;;;;;;;;9.50;99.90;;;;;;5094295;28;19927;-32
2023/10/27 01:04:18;;;;;;;;;;;9.50;99.90;;;;;;5094075;28;19950;-32
2023/10/27 01:06:45;;;;;;;;;;;9.50;99.90;;;;;;5111199;28;20380;-33
2023/10/27 01:09:11;;;;;;;;;;;9.50;99.90;;;;;;5094265;28;19935;-33
2023/10/27 01:11:38;;;;;;;;;;;9.50;99.90;;;;;;5111768;28;19928;-33
2023/10/27 01:14:05;;;;;;;;;;;9.50;99.90;;;;;;5092862;28;19974;-33
2023/10/27 01:16:33;;;;;;;;;;;9.50;99.90;;;;;;5113145;28;19924;-33
2023/10/27 01:18:59;;;;;;;;;;;9.50;99.90;;;;;;5110688;28;20296;-33
2023/10/27 01:21:26;;;;;;;;;;;9.50;99.90;;;;;;5094416;28;20383;-33
2023/10/27 01:23:54;;;;;;;;;;;9.60;99.90;;;;;;5092778;28;19927;-33
2023/10/27 01:26:21;;;;;;;;;;;9.60;99.90;;;;;;5112192;28;19923;-33
2023/10/27 01:28:47;;;;;;;;;;;9.60;99.90;;;;;;5111405;28;19923;-32
2023/10/27 01:31:14;;;;;;;;;;;9.50;99.90;;;;;;5094229;28;19928;-34
2023/10/27 01:33:41;;;;;;;;;;;9.60;99.90;;;;;;5112208;28;19984;-33
2023/10/27 01:36:07;;;;;;;;;;;9.60;99.90;;;;;;5112263;28;19923;-31
2023/10/27 01:38:34;;;;;;;;;;;9.60;99.90;;;;;;5093524;28;20453;-32
2023/10/27 01:41:02;;;;;;;;;;;9.60;99.90;;;;;;5091356;28;19978;-32
2023/10/27 01:43:29;;;;;;;;;;;9.60;99.90;;;;;;5093632;28;20375;-32
2023/10/27 01:45:56;;;;;;;;;;;9.60;99.90;;;;;;5111777;28;19977;-31
2023/10/27 01:48:22;;;;;;;;;;;9.60;99.90;;;;;;5111448;28;19931;-32
2023/10/27 01:50:49;;;;;;;;;;;9.60;99.90;;;;;;5086737;28;19928;-32
2023/10/27 01:53:16;;;;;;;;;;;9.60;99.90;;;;;;5093098;28;19924;-32
2023/10/27 01:55:42;;;;;;;;;;;9.60;99.90;;;;;;5094614;28;19928;-32
2023/10/27 01:58:10;;;;;;;;;;;9.60;99.90;;;;;;5095121;28;19924;-32
2023/10/27 02:00:37;;;;;;;;;;;9.60;99.90;;;;;;5091844;28;20369;-33
2023/10/27 02:03:03;;;;;;;;;;;9.60;99.90;;;;;;5111573;28;19924;-32
2023/10/27 02:05:30;;;;;;;;;;;9.60;99.90;;;;;;5092912;28;19924;-32
2023/10/27 02:07:58;;;;;;;;;;;9.60;99.90;;;;;;5112740;28;19924;-32
2023/10/27 02:10:25;;;;;;;;;;;9.60;99.90;;;;;;5093235;28;19975;-32
2023/10/27 02:12:51;;;;;;;;;;;9.70;99.90;;;;;;5094312;28;19992;-33
2023/10/27 02:15:19;;;;;;;;;;;9.60;99.90;;;;;;5093146;28;19973;-32
2023/10/27 02:17:46;;;;;;;;;;;9.70;99.90;;;;;;5096930;28;19928;-32
2023/10/27 02:20:13;;;;;;;;;;;9.70;99.90;;;;;;5097115;28;19967;-32
2023/10/27 02:22:39;;;;;;;;;;;9.70;99.90;;;;;;5098309;28;20280;-31
2023/10/27 02:25:06;;;;;;;;;;;9.60;99.90;;;;;;5093297;28;20325;-31
2023/10/27 02:27:38;;;;;;;;;;;9.70;99.90;;;;;;5097846;28;19928;-32
2023/10/27 02:30:05;;;;;;;;;;;9.70;99.90;;;;;;5104961;28;19980;-32
2023/10/27 02:32:33;;;;;;;;;;;9.70;99.90;;;;;;5097589;28;19971;-33
2023/10/27 02:35:00;;;;;;;;;;;9.70;99.90;;;;;;5096650;28;19928;-32
2023/10/27 02:37:26;;;;;;;;;;;9.70;99.90;;;;;;5114573;28;19970;-32
2023/10/27 02:39:53;;;;;;;;;;;9.70;99.90;;;;;;5115283;28;19932;-33
2023/10/27 02:42:20;;;;;;;;;;;9.70;99.90;;;;;;5115225;28;19924;-32
2023/10/27 02:44:46;;;;;;;;;;;9.70;99.90;;;;;;5112919;28;19924;-32
2023/10/27 02:47:13;;;;;;;;;;;9.70;99.90;;;;;;5097286;28;20000;-31
2023/10/27 02:49:41;;;;;;;;;;;9.70;99.90;;;;;;5092120;28;19974;-33
2023/10/27 02:52:08;;;;;;;;;;;9.70;99.90;;;;;;5095751;28;19923;-32
2023/10/27 02:54:35;;;;;;;;;;;9.70;99.90;;;;;;5096973;28;20302;-32
2023/10/27 02:57:01;;;;;;;;;;;9.70;99.90;;;;;;5113949;28;19928;-32
2023/10/27 02:59:28;;;;;;;;;;;9.70;99.90;;;;;;5096908;28;19987;-34
2023/10/27 03:01:54;;;;;;;;;;;9.70;99.90;;;;;;5097396;28;19936;-32
2023/10/27 03:04:21;;;;;;;;;;;9.70;99.90;;;;;;5096368;28;19927;-31
2023/10/27 03:06:49;;;;;;;;;;;9.70;99.90;;;;;;5095504;28;19923;-32
2023/10/27 03:09:16;;;;;;;;;;;9.70;99.90;;;;;;5096660;28;19923;-32
2023/10/27 03:11:42;;;;;;;;;;;9.70;99.90;;;;;;5095859;28;20437;-32
2023/10/27 03:14:09;;;;;;;;;;;9.70;99.90;;;;;;5097461;28;19984;-31
2023/10/27 03:16:36;;;;;;;;;;;9.70;99.90;;;;;;5113570;28;19923;-32
2023/10/27 03:19:02;;;;;;;;;;;9.70;99.90;;;;;;5095985;28;19973;-33
2023/10/27 03:21:29;;;;;;;;;;;9.70;99.90;;;;;;5096404;28;19928;-33
2023/10/27 03:23:57;;;;;;;;;;;9.80;99.90;;;;;;5095591;28;19993;-31
2023/10/27 03:26:23;;;;;;;;;;;9.70;99.90;;;;;;5093102;28;19974;-31
2023/10/27 03:28:50;;;;;;;;;;;9.80;99.90;;;;;;5094720;28;20386;-32
2023/10/27 03:31:17;;;;;;;;;;;9.70;99.90;;;;;;5095767;28;19976;-32
2023/10/27 03:33:44;;;;;;;;;;;9.80;99.90;;;;;;5113869;28;19924;-33
2023/10/27 03:36:11;;;;;;;;;;;9.70;99.90;;;;;;5095499;28;19959;-33
2023/10/27 03:38:37;;;;;;;;;;;9.70;99.90;;;;;;5096466;28;19965;-32
2023/10/27 03:41:05;;;;;;;;;;;9.80;99.90;;;;;;5096862;28;19985;-31
2023/10/27 03:43:34;;;;;;;;;;;9.70;99.90;;;;;;5096009;28;20434;-33
2023/10/27 03:46:01;;;;;;;;;;;9.70;99.90;;;;;;5113063;28;19931;-31
2023/10/27 03:48:28;;;;;;;;;;;9.70;99.90;;;;;;5113660;28;19974;-31
2023/10/27 03:50:57;;;;;;;;;;;9.70;99.90;;;;;;5095327;27;19924;-31
2023/10/27 03:53:24;;;;;;;;;;;9.70;99.90;;;;;;5096664;28;19931;-32
2023/10/27 03:55:53;;;;;;;;;;;9.70;99.90;;;;;;5094127;28;19969;-33
2023/10/27 03:58:21;;;;;;;;;;;9.70;99.90;;;;;;5111244;28;20585;-32
2023/10/27 04:00:48;;;;;;;;;;;9.70;99.90;;;;;;5091383;28;19927;-32
2023/10/27 04:03:15;;;;;;;;;;;9.70;99.90;;;;;;5093197;28;19984;-32
2023/10/27 04:05:41;;;;;;;;;;;9.70;99.90;;;;;;5092277;28;19928;-32
2023/10/27 04:08:08;;;;;;;;;;;9.70;99.90;;;;;;5094879;28;20345;-32
2023/10/27 04:10:35;;;;;;;;;;;9.70;99.90;;;;;;5093284;28;20003;-32
2023/10/27 04:13:02;;;;;;;;;;;9.70;99.90;;;;;;5091548;28;20611;-33
2023/10/27 04:15:30;;;;;;;;;;;9.70;99.90;;;;;;5090384;28;19932;-32
2023/10/27 04:17:56;;;;;;;;;;;9.70;99.90;;;;;;5093039;28;20007;-32
2023/10/27 04:20:23;;;;;;;;;;;9.70;99.90;;;;;;5092565;28;20008;-32
2023/10/27 04:22:50;;;;;;;;;;;9.70;99.90;;;;;;5089399;28;19977;-32
2023/10/27 04:25:16;;;;;;;;;;;9.70;99.90;;;;;;5089725;28;19959;-33
2023/10/27 04:27:43;;;;;;;;;;;9.70;99.90;;;;;;5092081;28;20353;-32
2023/10/27 04:30:11;;;;;;;;;;;9.60;99.90;;;;;;5093758;28;20374;-32
2023/10/27 04:32:39;;;;;;;;;;;9.70;99.90;;;;;;5095114;28;19930;-31
2023/10/27 04:35:06;;;;;;;;;;;9.70;99.90;;;;;;5093279;28;19928;-31
2023/10/27 04:37:33;;;;;;;;;;;9.70;99.90;;;;;;5090425;28;20252;-31
2023/10/27 04:39:59;;;;;;;;;;;9.70;99.90;;;;;;5093897;28;19930;-31
2023/10/27 04:42:26;;;;;;;;;;;9.70;99.90;;;;;;5112143;28;19924;-32
2023/10/27 04:44:52;;;;;;;;;;;9.60;99.90;;;;;;5094142;28;19927;-32
2023/10/27 04:47:20;;;;;;;;;;;9.60;99.90;;;;;;5092655;28;19927;-31
2023/10/27 04:49:48;;;;;;;;;;;9.60;99.90;;;;;;5093953;28;20022;-32
2023/10/27 04:52:14;;;;;;;;;;;9.60;99.90;;;;;;5112068;27;20338;-32
2023/10/27 04:54:41;;;;;;;;;;;9.70;99.90;;;;;;5095574;28;20438;-32
2023/10/27 04:57:08;;;;;;;;;;;9.60;99.90;;;;;;5091355;28;19924;-31
2023/10/27 04:59:34;;;;;;;;;;;9.60;99.90;;;;;;5107786;28;19973;-33
2023/10/27 05:02:01;;;;;;;;;;;9.60;99.90;;;;;;5101447;28;19927;-31
2023/10/27 05:04:28;;;;;;;;;;;9.60;99.90;;;;;;5086600;28;19927;-33
2023/10/27 05:06:58;;;;;;;;;;;9.60;99.90;;;;;;5086772;28;20386;-32
2023/10/27 05:09:25;;;;;;;;;;;9.60;99.90;;;;;;5082500;28;19925;-33
2023/10/27 05:11:51;;;;;;;;;;;9.60;99.90;;;;;;5086517;28;19923;-34
2023/10/27 05:14:18;;;;;;;;;;;9.50;99.90;;;;;;5090545;28;19924;-32
2023/10/27 05:16:45;;;;;;;;;;;9.50;99.90;;;;;;5094122;28;19923;-33
2023/10/27 05:19:12;;;;;;;;;;;9.50;99.90;;;;;;5092698;28;20031;-32
2023/10/27 05:21:39;;;;;;;;;;;9.50;99.90;;;;;;5091859;28;19930;-33
2023/10/27 05:24:09;;;;;;;;;;;9.50;99.90;;;;;;5089897;28;19974;-32
2023/10/27 05:26:35;;;;;;;;;;;9.50;99.90;;;;;;5100780;28;19928;-33
2023/10/27 05:29:02;;;;;;;;;;;9.50;99.90;;;;;;5087914;28;19935;-32
2023/10/27 05:31:29;;;;;;;;;;;9.40;99.90;;;;;;5092681;28;20371;-33
2023/10/27 05:33:55;;;;;;;;;;;9.50;99.90;;;;;;5088532;28;19973;-31
2023/10/27 05:36:25;;;;;;;;;;;9.40;99.90;;;;;;5091582;28;19971;-32
2023/10/27 05:38:52;;;;;;;;;;;9.40;99.90;;;;;;5092391;28;19928;-33
2023/10/27 05:41:20;;;;;;;;;;;9.40;99.90;;;;;;5093382;28;19935;-32
2023/10/27 05:43:46;;;;;;;;;;;9.40;99.90;;;;;;5085740;28;20085;-33
2023/10/27 05:46:13;;;;;;;;;;;9.40;99.90;;;;;;5096719;28;19923;-32
2023/10/27 05:48:40;;;;;;;;;;;9.40;99.90;;;;;;5106583;28;20334;-32
2023/10/27 05:51:07;;;;;;;;;;;9.40;99.90;;;;;;5075731;28;19927;-33
2023/10/27 05:53:33;;;;;;;;;;;9.40;99.90;;;;;;5109879;28;20303;-32
2023/10/27 05:56:00;;;;;;;;;;;9.40;99.90;;;;;;5077480;28;21121;-33
2023/10/27 05:58:32;;;;;;;;;;;9.40;99.90;;;;;;5088564;28;19966;-33
2023/10/27 06:00:59;;;;;;;;;;;9.30;99.90;;;;;;5107464;28;20247;-32
2023/10/27 06:03:26;;;;;;;;;;;9.30;99.90;;;;;;5091569;28;19928;-33
2023/10/27 06:05:52;;;;;;;;;;;9.30;99.90;;;;;;5090128;28;19928;-32
2023/10/27 06:08:19;;;;;;;;;;;9.30;99.90;;;;;;5089335;28;19924;-32
2023/10/27 06:10:45;;;;;;;;;;;9.30;99.90;;;;;;5110432;28;20347;-32
2023/10/27 06:13:12;;;;;;;;;;;9.30;99.90;;;;;;5092248;28;19981;-32
2023/10/27 06:15:40;;;;;;;;;;;9.30;99.90;;;;;;5110887;28;19927;-32
2023/10/27 06:18:07;;;;;;;;;;;9.30;99.90;;;;;;5110334;28;20000;-32
2023/10/27 06:20:34;;;;;;;;;;;9.30;99.90;;;;;;5091182;28;19939;-32
2023/10/27 06:23:00;;;;;;;;;;;9.30;99.90;;;;;;5091926;28;19927;-33
2023/10/27 06:25:27;;;;;;;;;;;9.30;99.90;;;;;;5092323;28;19965;-32
2023/10/27 06:27:54;;;;;;;;;;;9.30;99.90;;;;;;5091646;28;19975;-33
2023/10/27 06:30:21;;;;;;;;;;;9.30;99.90;;;;;;5110391;28;20373;-32
2023/10/27 06:32:49;;;;;;;;;;;9.30;99.90;;;;;;5110483;28;19924;-32
2023/10/27 06:35:15;;;;;;;;;;;9.20;99.90;;;;;;5109314;28;19987;-32
2023/10/27 06:37:42;;;;;;;;;;;9.20;99.90;;;;;;5092569;28;19931;-33
2023/10/27 06:40:09;;;;;;;;;;;9.20;99.90;;;;;;5092014;28;20466;-32
2023/10/27 06:42:36;;;;;;;;;;;9.20;99.90;;;;;;5092503;28;19976;-33
2023/10/27 06:45:03;;;;;;;;;;;9.20;99.90;;;;;;5091454;28;19927;-33
2023/10/27 06:47:30;;;;;;;;;;;9.30;99.90;;;;;;5091486;28;19977;-32
2023/10/27 06:50:01;;;;;;;;;;;9.30;99.90;;;;;;5110544;28;19969;-32
2023/10/27 06:52:27;;;;;;;;;;;9.30;99.90;;;;;;5110840;28;19931;-32
2023/10/27 06:54:54;;;;;;;;;;;9.30;99.90;;;;;;5090967;28;19924;-32
2023/10/27 06:57:21;;;;;;;;;;;9.30;99.90;;;;;;5092211;28;20388;-31
2023/10/27 06:59:47;;;;;;;;;;;9.30;99.90;;;;;;5091988;28;19953;-32
2023/10/27 07:02:14;;;;;;;;;;;9.30;99.90;;;;;;5110328;28;19977;-32
2023/10/27 07:04:41;;;;;;;;;;;9.30;99.90;;;;;;5111665;28;19931;-32
2023/10/27 07:07:09;;;;;;;;;;;9.40;99.90;;;;;;5113973;28;20376;-32
2023/10/27 07:09:36;;;;;;;;;;;9.30;99.90;;;;;;5113706;28;19931;-32
2023/10/27 07:12:03;;;;;;;;;;;9.30;99.90;;;;;;5095786;28;19967;-32
2023/10/27 07:14:30;;;;;;;;;;;9.30;99.90;;;;;;5094617;28;19923;-32
2023/10/27 07:17:00;;;;;;;;;;;9.40;99.90;;;;;;5113744;28;19928;-32
2023/10/27 07:19:27;;;;;;;;;;;9.40;99.90;;;;;;5095856;28;19924;-32
2023/10/27 07:21:53;;;;;;;;;;;9.40;99.90;;;;;;5095354;28;20360;-31
2023/10/27 07:24:21;;;;;;;;;;;9.40;99.90;;;;;;5092759;28;19927;-32
2023/10/27 07:26:48;;;;;;;;;;;9.40;99.90;;;;;;5077767;28;19924;-31
2023/10/27 07:29:15;;;;;;;;;;;9.40;99.90;;;;;;5111621;28;19931;-32
2023/10/27 07:31:42;;;;;;;;;;;9.40;99.90;;;;;;5111549;28;20380;-31
2023/10/27 07:34:08;;;;;;;;;;;9.40;99.90;;;;;;5112429;28;19924;-31
2023/10/27 07:36:35;;;;;;;;;;;9.40;99.90;;;;;;5093675;28;19923;-31
2023/10/27 07:39:02;;;;;;;;;;;9.50;99.90;;;;;;5112843;28;19931;-32
2023/10/27 07:41:31;;;;;;;;;;;9.40;99.90;;;;;;5092375;27;19950;-33
2023/10/27 07:43:57;;;;;;;;;;;9.50;99.90;;;;;;5111670;27;19934;-32
2023/10/27 07:46:24;;;;;;;;;;;9.50;99.90;;;;;;5101924;28;19985;-32
2023/10/27 07:48:50;;;;;;;;;;;9.50;99.90;;;;;;5100792;28;19923;-31
2023/10/27 07:51:17;;;;;;;;;;;9.50;99.90;;;;;;5113021;28;19981;-33
2023/10/27 07:53:44;;;;;;;;;;;9.50;99.90;;;;;;5113263;28;19984;-33
2023/10/27 07:56:11;;;;;;;;;;;9.50;99.90;;;;;;5093450;28;19989;-32
2023/10/27 07:58:39;;;;;;;;;;;9.50;99.90;;;;;;5094142;28;19924;-32
2023/10/27 08:01:06;;;;;;;;;;;9.50;99.90;;;;;;5109971;28;19959;-32
2023/10/27 08:03:33;;;;;;;;;;;9.50;99.90;;;;;;5112170;28;19927;-32
2023/10/27 08:06:00;;;;;;;;;;;9.60;99.90;;;;;;5112421;28;20370;-34
2023/10/27 08:08:26;;;;;;;;;;;9.60;99.90;;;;;;5093903;28;19923;-31
2023/10/27 08:10:53;;;;;;;;;;;9.60;99.90;;;;;;5092522;28;20230;-31
2023/10/27 08:13:20;;;;;;;;;;;9.60;99.90;;;;;;5111609;28;19977;-31
2023/10/27 08:15:49;;;;;;;;;;;9.60;99.90;;;;;;5112534;28;20418;-32
2023/10/27 08:18:16;;;;;;;;;;;9.70;99.90;;;;;;5113231;28;20321;-32
2023/10/27 08:20:43;;;;;;;;;;;9.70;99.90;;;;;;5092167;28;20391;-31
2023/10/27 08:23:10;;;;;;;;;;;9.70;99.90;;;;;;5111879;28;19934;-32
2023/10/27 08:25:37;;;;;;;;;;;9.70;99.90;;;;;;5094274;28;19960;-31
2023/10/27 08:28:04;;;;;;;;;;;9.70;99.90;;;;;;5110266;28;19924;-31
2023/10/27 08:30:31;;;;;;;;;;;9.70;99.90;;;;;;5094450;28;20016;-32
2023/10/27 08:32:59;;;;;;;;;;;9.70;99.90;;;;;;5109490;28;19927;-34
2023/10/27 08:35:25;;;;;;;;;;;9.80;99.90;;;;;;5112148;28;19924;-33
2023/10/27 08:37:52;;;;;;;;;;;9.80;99.90;;;;;;5112223;28;19993;-33
2023/10/27 08:40:19;;;;;;;;;;;9.80;99.90;;;;;;5111184;28;20417;-33
2023/10/27 08:42:45;;;;;;;;;;;9.80;99.90;;;;;;5109987;28;20018;-32
2023/10/27 08:45:12;;;;;;;;;;;9.80;99.90;;;;;;5107843;28;19927;-32
2023/10/27 08:47:39;;;;;;;;;;;9.80;99.90;;;;;;5106121;28;19927;-33
2023/10/27 08:50:07;;;;;;;;;;;9.80;99.90;;;;;;5109611;28;19969;-32
2023/10/27 08:52:34;;;;;;;;;;;9.90;99.90;;;;;;5109174;28;20424;-32
2023/10/27 08:55:01;;;;;;;;;;;9.90;99.90;;;;;;5111703;28;20283;-33
2023/10/27 08:57:28;;;;;;;;;;;9.90;99.90;;;;;;5093693;28;19969;-33
2023/10/27 08:59:55;;;;;;;;;;;10.00;99.90;;;;;;5092895;28;20336;-32
2023/10/27 09:02:28;;;;;;;;;;;10.00;99.90;;;;;;5093598;28;19981;-33
2023/10/27 09:04:59;;;;;;;;;;;10.00;99.90;;;;;;5111626;28;20401;-32
2023/10/27 09:07:27;;;;;;;;;;;10.00;99.90;;;;;;5111364;28;19967;-33
2023/10/27 09:09:54;;;;;;;;;;;10.00;99.90;;;;;;5111384;28;19927;-33
2023/10/27 09:12:23;;;;;;;;;;;10.00;99.90;;;;;;5092118;28;20395;-34
2023/10/27 09:14:56;;;;;;;;;;;10.10;99.90;;;;;;5111624;28;20343;-33
2023/10/27 09:17:23;;;;;;;;;;;10.10;99.90;;;;;;5111016;28;20008;-32
2023/10/27 09:20:02;;;;;;;;;;;10.10;99.90;;;;;;5111367;28;19988;-32
2023/10/27 09:22:29;;;;;;;;;;;10.10;99.90;;;;;;5092619;28;20043;-33
2023/10/27 09:25:04;;;;;;;;;;;10.10;99.90;;;;;;5093329;28;19977;-33
2023/10/27 09:27:31;;;;;;;;;;;10.10;99.90;;;;;;5092581;28;19978;-33
2023/10/27 09:29:58;;;;;;;;;;;10.10;99.90;;;;;;5111442;28;20277;-32
2023/10/27 09:32:25;;;;;;;;;;;10.10;99.90;;;;;;5092544;28;19928;-34
2023/10/27 09:34:57;;;;;;;;;;;10.20;99.90;;;;;;5092536;28;19923;-32
2023/10/27 09:37:23;;;;;;;;;;;10.10;99.90;;;;;;5091373;28;19928;-32
2023/10/27 09:39:52;;;;;;;;;;;10.10;99.90;;;;;;5108508;28;19931;-31
2023/10/27 09:42:19;;;;;;;;;;;10.20;99.90;;;;;;5110322;28;19930;-32
2023/10/27 09:44:46;;;;;;;;;;;10.20;99.90;;;;;;5108865;28;19928;-32
2023/10/27 09:47:14;;;;;;;;;;;10.20;99.90;;;;;;5090233;28;19973;-32
2023/10/27 09:49:40;;;;;;;;;;;10.20;99.90;;;;;;5106962;28;19996;-33
2023/10/27 09:52:08;;;;;;;;;;;10.20;99.90;;;;;;5107416;28;20379;-32
2023/10/27 09:54:35;;;;;;;;;;;10.20;99.90;;;;;;5108843;28;19996;-32
2023/10/27 09:57:04;;;;;;;;;;;10.20;99.90;;;;;;5090816;28;19931;-33
2023/10/27 09:59:31;;;;;;;;;;;10.20;99.90;;;;;;5105319;28;19930;-32
2023/10/27 10:01:59;;;;;;;;;;;10.30;99.90;;;;;;5089933;28;20352;-33
2023/10/27 10:04:44;;;;;;;;;;;10.20;99.90;;;;;;5092911;28;19923;-34
2023/10/27 10:07:11;;;;;;;;;;;10.20;99.90;;;;;;5111272;28;19924;-33
2023/10/27 10:09:40;;;;;;;;;;;10.20;99.90;;;;;;5092755;28;19963;-35
2023/10/27 10:12:10;;;;;;;;;;;10.30;99.90;;;;;;5093188;28;19940;-33
2023/10/27 10:14:46;;;;;;;;;;;10.30;99.90;;;;;;5111213;28;19924;-32
2023/10/27 10:17:13;;;;;;;;;;;10.30;99.90;;;;;;5110635;28;20276;-32
2023/10/27 10:19:49;;;;;;;;;;;10.30;99.90;;;;;;5093628;28;19923;-31
2023/10/27 10:22:31;;;;;;;;;;;10.30;99.90;;;;;;5093975;28;19947;-32
2023/10/27 10:25:16;;;;;;;;;;;10.30;99.90;;;;;;5092831;28;19924;-33
2023/10/27 10:27:57;;;;;;;;;;;10.30;99.90;;;;;;5109667;28;19932;-33
2023/10/27 10:30:26;;;;;;;;;;;10.40;99.90;;;;;;5108694;28;19977;-34
2023/10/27 10:32:54;;;;;;;;;;;10.40;99.90;;;;;;5106771;28;19928;-32
2023/10/27 10:35:21;;;;;;;;;;;10.40;99.90;;;;;;5108342;28;19985;-33
2023/10/27 10:37:47;;;;;;;;;;;10.40;99.90;;;;;;5093890;28;20439;-33
2023/10/27 10:40:17;;;;;;;;;;;10.40;99.90;;;;;;5115483;28;19993;-33
2023/10/27 10:43:03;;;;;;;;;;;10.40;99.90;;;;;;5113519;28;19963;-32
2023/10/27 10:45:31;;;;;;;;;;;10.40;99.90;;;;;;5110831;28;19976;-32
2023/10/27 10:47:58;;;;;;;;;;;10.40;99.90;;;;;;5096174;28;19924;-33
2023/10/27 10:50:28;;;;;;;;;;;10.50;99.90;;;;;;5107399;28;20367;-32
2023/10/27 10:53:10;;;;;;;;;;;10.50;99.90;;;;;;5115051;28;20075;-32
2023/10/27 10:55:37;;;;;;;;;;;10.50;99.90;;;;;;5091990;28;19974;-33
2023/10/27 10:58:04;;;;;;;;;;;10.50;99.90;;;;;;5094972;28;19976;-32
2023/10/27 11:00:35;;;;;;;;;;;10.50;99.90;;;;;;5096908;28;19924;-32
2023/10/27 11:03:08;;;;;;;;;;;10.50;99.90;;;;;;5094481;28;19924;-32
2023/10/27 11:05:35;;;;;;;;;;;10.50;99.90;;;;;;5111875;27;19924;-32
2023/10/27 11:08:02;;;;;;;;;;;10.50;99.90;;;;;;5096509;28;19924;-33
2023/10/27 11:10:29;;;;;;;;;;;10.60;99.90;;;;;;5095431;28;19923;-32
2023/10/27 11:12:56;;;;;;;;;;;10.60;99.90;;;;;;5113657;28;19924;-32
2023/10/27 11:15:37;;;;;;;;;;;10.60;99.90;;;;;;5096118;28;20411;-32
2023/10/27 11:18:08;;;;;;;;;;;10.60;99.90;;;;;;5093228;28;20449;-33
2023/10/27 11:20:35;;;;;;;;;;;10.60;99.90;;;;;;5115294;28;19970;-32
2023/10/27 11:23:08;;;;;;;;;;;10.70;99.90;;;;;;5113823;28;19930;-32
2023/10/27 11:25:35;;;;;;;;;;;10.70;99.90;;;;;;5112209;28;19924;-33
2023/10/27 11:28:20;;;;;;;;;;;10.70;99.90;;;;;;5091605;28;20014;-33
2023/10/27 11:30:58;;;;;;;;;;;10.70;99.90;;;;;;5092764;28;20407;-32
2023/10/27 11:33:26;;;;;;;;;;;10.80;99.90;;;;;;5092851;28;19964;-32
2023/10/27 11:35:53;;;;;;;;;;;10.80;99.90;;;;;;5096067;28;19977;-31
2023/10/27 11:38:22;;;;;;;;;;;10.80;99.90;;;;;;5095067;28;20010;-31
2023/10/27 11:40:49;;;;;;;;;;;10.80;99.90;;;;;;5096363;28;19966;-33
2023/10/27 11:43:16;;;;;;;;;;;10.80;99.90;;;;;;5114014;28;19993;-32
2023/10/27 11:45:44;;;;;;;;;;;10.90;99.90;;;;;;5112698;28;19928;-33
2023/10/27 11:48:11;;;;;;;;;;;10.90;99.90;;;;;;5095468;28;20010;-33
2023/10/27 11:50:39;;;;;;;;;;;10.80;99.90;;;;;;5112599;28;20375;-33
2023/10/27 11:53:06;;;;;;;;;;;10.90;99.90;;;;;;5113212;27;19924;-32
2023/10/27 11:55:32;;;;;;;;;;;10.90;99.90;;;;;;5113178;28;19928;-34
2023/10/27 11:57:59;;;;;;;;;;;10.90;99.90;;;;;;5091226;28;19984;-31
2023/10/27 12:00:26;;;;;;;;;;;10.90;99.90;;;;;;5091219;28;19924;-31
2023/10/27 12:02:53;;;;;;;;;;;10.90;99.90;;;;;;5114610;28;19977;-31
2023/10/27 12:05:20;;;;;;;;;;;10.90;99.90;;;;;;5113801;28;19924;-32
2023/10/27 12:07:48;;;;;;;;;;;10.90;99.90;;;;;;5112425;28;19924;-31
2023/10/27 12:10:14;;;;;;;;;;;11.00;99.90;;;;;;5094734;28;19927;-33
2023/10/27 12:12:41;;;;;;;;;;;11.00;99.90;;;;;;5091449;28;19970;-33
2023/10/27 12:15:08;;;;;;;;;;;11.00;99.90;;;;;;5113065;28;19977;-33
2023/10/27 12:17:35;;;;;;;;;;;10.90;99.90;;;;;;5113625;28;19963;-34
2023/10/27 12:20:02;;;;;;;;;;;11.00;99.90;;;;;;5094897;28;20284;-32
2023/10/27 12:22:30;;;;;;;;;;;10.90;99.90;;;;;;5103226;28;19935;-33
2023/10/27 12:24:58;;;;;;;;;;;10.90;99.90;;;;;;5093720;28;19932;-33
2023/10/27 12:27:24;;;;;;;;;;;11.00;99.90;;;;;;5113367;28;19928;-33
2023/10/27 12:29:51;;;;;;;;;;;10.90;99.90;;;;;;5094020;28;20026;-34
2023/10/27 12:32:18;;;;;;;;;;;11.00;99.90;;;;;;5093993;28;20317;-33
2023/10/27 12:34:45;;;;;;;;;;;11.00;99.90;;;;;;5090385;28;19988;-31
2023/10/27 12:37:11;;;;;;;;;;;11.00;99.90;;;;;;5080412;28;19950;-32
2023/10/27 12:39:41;;;;;;;;;;;11.00;99.90;;;;;;5078107;28;20376;-33
2023/10/27 12:42:09;;;;;;;;;;;11.00;99.90;;;;;;5092307;28;19928;-32
2023/10/27 12:44:36;;;;;;;;;;;11.10;99.90;;;;;;5103537;28;20367;-32
2023/10/27 12:47:03;;;;;;;;;;;11.00;99.90;;;;;;5090914;28;19977;-33
2023/10/27 12:49:29;;;;;;;;;;;11.10;99.90;;;;;;5093862;28;19933;-33
2023/10/27 12:51:56;;;;;;;;;;;11.10;99.90;;;;;;5094372;28;19977;-33
2023/10/27 12:54:23;;;;;;;;;;;11.10;99.90;;;;;;5106651;28;19928;-32
2023/10/27 12:56:49;;;;;;;;;;;11.10;99.90;;;;;;5092889;28;19923;-32
2023/10/27 12:59:18;;;;;;;;;;;11.20;99.90;;;;;;5113373;28;20385;-32
2023/10/27 13:01:44;;;;;;;;;;;11.20;99.90;;;;;;5075626;28;19928;-34
2023/10/27 13:04:11;;;;;;;;;;;11.20;99.90;;;;;;5087758;28;19967;-32
2023/10/27 13:06:38;;;;;;;;;;;11.20;99.90;;;;;;5093140;28;19924;-32
2023/10/27 13:09:06;;;;;;;;;;;11.20;99.90;;;;;;5092886;28;19934;-32
2023/10/27 13:11:33;;;;;;;;;;;11.20;99.90;;;;;;5093215;28;20030;-32
2023/10/27 13:14:00;;;;;;;;;;;11.20;99.90;;;;;;5092576;28;19928;-31
2023/10/27 13:16:28;;;;;;;;;;;11.20;99.90;;;;;;5093110;28;19924;-32
2023/10/27 13:18:54;;;;;;;;;;;11.10;99.90;;;;;;5094390;28;19975;-32
2023/10/27 13:21:21;;;;;;;;;;;11.10;99.90;;;;;;5094239;28;19924;-32
2023/10/27 13:23:49;;;;;;;;;;;11.10;99.90;;;;;;5110504;28;19930;-31
2023/10/27 13:26:15;;;;;;;;;;;11.10;99.90;;;;;;5111425;28;19924;-32
2023/10/27 13:28:44;;;;;;;;;;;11.10;99.90;;;;;;5093670;28;20005;-32
2023/10/27 13:31:11;;;;;;;;;;;11.20;99.90;;;;;;5092635;28;19928;-32
2023/10/27 13:33:39;;;;;;;;;;;11.10;99.90;;;;;;5092591;28;19935;-32
2023/10/27 13:36:09;;;;;;;;;;;11.20;99.90;;;;;;5108723;28;19924;-33
2023/10/27 13:38:35;;;;;;;;;;;11.20;99.90;;;;;;5091713;28;19923;-32
2023/10/27 13:41:02;;;;;;;;;;;11.20;99.90;;;;;;5111639;28;20316;-33
2023/10/27 13:43:29;;;;;;;;;;;11.20;99.90;;;;;;5094283;28;20437;-33
2023/10/27 13:46:00;;;;;;;;;;;11.20;99.90;;;;;;5089873;28;19959;-31
2023/10/27 13:48:26;;;;;;;;;;;11.20;99.90;;;;;;5090965;28;19924;-32
2023/10/27 13:50:55;;;;;;;;;;;11.20;99.90;;;;;;5093213;28;19924;-32
2023/10/27 13:53:22;;;;;;;;;;;11.20;99.90;;;;;;5107954;28;20424;-32
2023/10/27 13:55:48;;;;;;;;;;;11.20;99.90;;;;;;5093203;28;19928;-32
2023/10/27 13:58:15;;;;;;;;;;;11.20;99.90;;;;;;5107193;28;19924;-32
2023/10/27 14:00:42;;;;;;;;;;;11.20;99.90;;;;;;5081800;28;19959;-32
2023/10/27 14:03:08;;;;;;;;;;;11.20;99.90;;;;;;5085173;28;20023;-32
2023/10/27 14:05:35;;;;;;;;;;;11.20;99.90;;;;;;5079559;28;20001;-32
2023/10/27 14:08:03;;;;;;;;;;;11.20;99.90;;;;;;5112241;28;19931;-32
2023/10/27 14:10:30;;;;;;;;;;;11.20;99.90;;;;;;5109653;28;20391;-33
2023/10/27 14:12:57;;;;;;;;;;;11.10;99.90;;;;;;5089413;28;20291;-32
2023/10/27 14:15:23;;;;;;;;;;;11.10;99.90;;;;;;5113261;28;19923;-32
2023/10/27 14:17:51;;;;;;;;;;;11.10;99.90;;;;;;5088430;28;19928;-32
2023/10/27 14:20:18;;;;;;;;;;;11.10;99.90;;;;;;5089918;28;20395;-32
2023/10/27 14:22:45;;;;;;;;;;;11.10;99.90;;;;;;5094019;28;20411;-32
2023/10/27 14:25:13;;;;;;;;;;;11.10;99.90;;;;;;5084611;28;19924;-32
2023/10/27 14:27:40;;;;;;;;;;;11.00;99.90;;;;;;5102163;28;19931;-34